createdAt,value
2023-05-22T05:31:08.353Z,99.90
2023-05-22T05:34:10.058Z,99.90
2023-05-22T05:37:12.131Z,99.90
2023-05-22T05:40:14.016Z,99.90
2023-05-22T05:43:15.994Z,99.90
2023-05-22T05:46:18.298Z,99.90
2023-05-22T05:49:20.451Z,99.90
2023-05-22T05:52:22.700Z,99.90
2023-05-22T05:55:25.299Z,99.90
2023-05-22T05:58:27.112Z,99.90
2023-05-22T06:01:32.935Z,99.90
2023-05-22T06:04:35.774Z,99.90
2023-05-22T06:07:38.127Z,99.90
2023-05-22T06:10:40.842Z,99.90
2023-05-22T06:49:37.286Z,99.90
2023-05-22T06:52:40.626Z,99.90
2023-05-22T06:55:43.420Z,99.90
2023-05-22T06:58:46.647Z,99.90
2023-05-22T07:01:49.528Z,99.90
2023-05-22T07:04:52.574Z,99.90
2023-05-22T07:07:54.646Z,99.90
2023-05-22T07:10:57.834Z,99.90
2023-05-22T07:14:01.683Z,99.90
2023-05-22T07:17:03.702Z,99.90
2023-05-22T07:20:07.066Z,99.90
2023-05-22T07:23:09.429Z,99.90
2023-05-22T07:26:11.275Z,99.90
2023-05-22T07:29:16.530Z,99.90
2023-05-22T07:32:18.277Z,99.90
2023-05-22T07:35:20.246Z,99.90
2023-05-22T07:38:22.526Z,99.90
2023-05-22T07:41:27.323Z,99.90
2023-05-22T07:44:29.575Z,99.90
2023-05-22T07:47:31.335Z,99.90
2023-05-22T07:50:33.588Z,99.90
2023-05-22T07:53:36.558Z,99.90
2023-05-22T07:56:41.764Z,99.90
2023-05-22T07:59:45.751Z,99.90
2023-05-22T08:02:49.446Z,99.90
2023-05-22T08:05:51.358Z,99.90
2023-05-22T08:08:53.539Z,99.90
2023-05-22T08:11:55.693Z,99.90
2023-05-22T08:14:58.304Z,99.90
2023-05-22T08:18:02.416Z,99.90
2023-05-22T08:21:05.153Z,99.90
2023-05-22T08:24:08.485Z,99.90
2023-05-22T08:27:10.392Z,99.90
2023-05-22T08:30:12.821Z,99.90
2023-05-22T08:33:14.634Z,99.90
2023-05-22T08:36:16.820Z,99.90
2023-05-22T08:39:19.216Z,99.90
2023-05-22T08:42:22.091Z,99.90
2023-05-22T08:45:26.454Z,99.90
2023-05-22T08:48:34.220Z,99.90
2023-05-22T08:51:42.271Z,99.90
2023-05-22T08:54:50.089Z,99.30
2023-05-22T08:57:52.967Z,99.60
2023-05-22T09:00:55.143Z,99.90
2023-05-22T09:04:04.160Z,99.90
2023-05-22T09:07:06.852Z,98.50
2023-05-22T09:10:09.012Z,97.30
2023-05-22T09:13:23.155Z,98.30
2023-05-22T09:16:25.719Z,99.80
2023-05-22T09:19:27.620Z,99.90
2023-05-22T09:22:38.722Z,99.90
2023-05-22T09:25:43.053Z,99.90
2023-05-22T09:28:46.866Z,99.90
2023-05-22T09:31:48.886Z,99.90
2023-05-22T09:34:51.548Z,99.90
2023-05-22T09:37:56.442Z,99.90
2023-05-22T09:40:58.997Z,99.90
2023-05-22T09:44:07.090Z,99.90
2023-05-22T09:47:10.313Z,99.90
2023-05-22T09:50:12.402Z,99.90
2023-05-22T09:53:18.534Z,99.90
2023-05-22T09:56:37.895Z,99.90
2023-05-22T09:59:44.126Z,99.90
2023-05-22T10:03:04.015Z,99.90
2023-05-22T10:06:06.843Z,99.90
2023-05-22T10:09:12.757Z,99.90
2023-05-22T10:12:20.286Z,99.90
2023-05-22T10:15:22.815Z,99.90
2023-05-22T10:18:25.580Z,99.90
2023-05-22T10:21:30.231Z,99.90
2023-05-22T10:24:33.525Z,99.90
2023-05-22T10:27:35.603Z,99.90
2023-05-22T10:30:40.818Z,99.90
2023-05-22T10:33:48.748Z,99.90
2023-05-22T10:37:16.669Z,99.90
2023-05-22T10:40:29.328Z,99.90
2023-05-22T10:43:34.295Z,99.90
2023-05-22T10:46:36.680Z,99.90
2023-05-22T10:49:43.089Z,99.90
2023-05-22T10:52:44.937Z,99.90
2023-05-22T10:56:09.008Z,99.90
2023-05-22T10:59:10.999Z,99.90
2023-05-22T11:02:29.288Z,99.90
2023-05-22T11:05:31.275Z,99.90
2023-05-22T11:08:37.545Z,99.90
2023-05-22T11:11:39.850Z,99.90
2023-05-22T11:14:41.867Z,99.90
2023-05-22T11:17:51.329Z,99.90
2023-05-22T11:20:54.873Z,99.90
2023-05-22T11:24:01.073Z,99.90
2023-05-22T11:27:07.745Z,99.90
2023-05-22T11:30:10.603Z,99.90
2023-05-22T11:33:13.027Z,99.90
2023-05-22T11:36:15.892Z,99.90
2023-05-22T11:39:17.744Z,99.90
2023-05-22T11:42:20.818Z,99.90
2023-05-22T11:45:23.211Z,99.90
2023-05-22T11:48:25.348Z,99.90
2023-05-22T11:51:30.604Z,99.90
2023-05-22T11:54:32.986Z,99.90
2023-05-22T11:57:36.231Z,99.90
2023-05-22T12:00:40.391Z,99.90
2023-05-22T12:03:42.559Z,99.90
2023-05-22T12:06:44.807Z,99.90
2023-05-22T12:09:47.150Z,99.90
2023-05-22T12:12:49.089Z,99.90
2023-05-22T12:15:52.824Z,99.90
2023-05-22T12:18:55.212Z,99.90
2023-05-22T12:21:59.035Z,99.90
2023-05-22T12:25:00.975Z,99.90
2023-05-22T12:28:02.711Z,99.90
2023-05-22T12:31:04.772Z,99.90
2023-05-22T12:34:08.005Z,99.90
2023-05-22T12:37:28.371Z,99.90
2023-05-22T12:40:30.362Z,99.90
2023-05-22T12:43:32.099Z,99.90
2023-05-22T12:46:34.665Z,99.90
2023-05-22T12:49:36.436Z,99.90
2023-05-22T12:52:38.278Z,99.90
2023-05-22T12:55:40.485Z,99.90
2023-05-22T12:58:43.713Z,99.90
2023-05-22T13:01:45.603Z,99.90
2023-05-22T13:04:47.463Z,99.90
2023-05-22T13:07:49.637Z,99.90
2023-05-22T13:10:51.586Z,99.90
2023-05-22T13:13:53.614Z,99.90
2023-05-22T13:16:55.646Z,99.90
2023-05-22T13:20:00.116Z,99.90
2023-05-22T13:23:02.230Z,99.90
2023-05-22T13:26:04.128Z,99.90
2023-05-22T13:29:06.554Z,99.90
2023-05-22T13:32:08.453Z,99.90
2023-05-22T13:35:10.499Z,99.90
2023-05-22T13:38:12.332Z,99.90
2023-05-22T13:41:15.649Z,99.90
2023-05-22T13:44:17.487Z,99.90
2023-05-22T13:47:19.280Z,99.90
2023-05-22T13:50:21.136Z,99.90
2023-05-22T13:53:23.004Z,99.90
2023-05-22T13:56:26.174Z,99.90
2023-05-22T13:59:28.603Z,99.90
2023-05-22T14:02:30.512Z,99.90
2023-05-22T14:05:32.442Z,99.90
2023-05-22T14:08:34.365Z,99.90
2023-05-22T14:11:39.174Z,99.90
2023-05-22T14:14:42.258Z,99.90
2023-05-22T14:17:45.687Z,99.90
2023-05-22T14:20:48.144Z,99.90
2023-05-22T14:23:50.989Z,99.90
2023-05-22T14:26:57.804Z,99.90
2023-05-22T14:30:00.842Z,99.90
2023-05-22T14:33:03.984Z,99.90
2023-05-22T14:36:06.299Z,99.90
2023-05-22T14:39:08.072Z,99.90
2023-05-22T14:42:10.298Z,99.90
2023-05-22T14:45:12.567Z,99.90
2023-05-22T14:48:26.062Z,99.90
2023-05-22T14:51:27.920Z,99.90
2023-05-22T14:54:30.918Z,99.90
2023-05-22T14:57:32.779Z,99.90
2023-05-22T15:00:34.627Z,99.90
2023-05-22T15:03:36.394Z,99.90
2023-05-22T15:06:38.191Z,99.90
2023-05-22T15:09:39.994Z,99.90
2023-05-22T15:12:41.671Z,99.90
2023-05-22T15:15:43.472Z,99.90
2023-05-22T15:18:45.288Z,99.90
2023-05-22T15:21:47.214Z,99.90
2023-05-22T15:25:02.168Z,99.90
2023-05-22T15:28:06.345Z,99.90
2023-05-22T15:31:08.083Z,99.90
2023-05-22T15:34:09.734Z,99.90
2023-05-22T15:37:11.474Z,99.90
2023-05-22T15:40:16.528Z,99.90
2023-05-22T15:43:18.778Z,99.20
2023-05-22T15:46:20.694Z,98.50
2023-05-22T15:49:22.542Z,99.90
2023-05-22T15:52:24.520Z,99.90
2023-05-22T15:55:26.381Z,99.90
2023-05-22T15:58:31.277Z,99.90
